Time;durP1;ratioP1;P1;durP2;ratioP2;P2;SDS_P1;SDS_P2;PMS_P1;PMS_P2;Temp;Humidity;BMP_temperature;BMP_pressure;BME280_temperature;BME280_humidity;BME280_pressure;Samples;Min_cycle;Max_cycle;Signal;HPM_P1;HPM_P2
2022/02/22 00:01:11;;;;;;;17.90;3.67;;;4.70;99.90;;;;;;5090400;28;20066;-52
2022/02/22 00:03:37;;;;;;;21.55;5.22;;;4.70;99.90;;;;;;5105463;28;20599;-55
2022/02/22 00:06:03;;;;;;;20.30;4.72;;;4.60;99.90;;;;;;5106978;28;20524;-53
2022/02/22 00:08:29;;;;;;;23.13;4.35;;;4.60;99.90;;;;;;5107896;28;20035;-51
2022/02/22 00:10:55;;;;;;;20.42;5.57;;;4.60;99.90;;;;;;5100214;28;20024;-55
2022/02/22 00:13:20;;;;;;;22.60;5.20;;;4.60;99.90;;;;;;5095070;28;20035;-57
2022/02/22 00:15:46;;;;;;;17.25;4.20;;;4.60;99.90;;;;;;5089259;28;20024;-51
2022/02/22 00:18:11;;;;;;;23.10;4.45;;;4.60;99.90;;;;;;5089366;28;20035;-50
2022/02/22 00:20:37;;;;;;;24.92;5.05;;;4.60;99.90;;;;;;5097175;28;20475;-53
2022/02/22 00:23:05;;;;;;;16.70;4.30;;;4.50;99.90;;;;;;5096911;28;20081;-54
2022/02/22 00:25:31;;;;;;;21.23;4.50;;;4.50;99.90;;;;;;5090439;28;20040;-57
2022/02/22 00:27:57;;;;;;;25.48;5.13;;;4.50;99.90;;;;;;5096834;28;20039;-55
2022/02/22 00:30:22;;;;;;;19.17;4.15;;;4.50;99.90;;;;;;5109362;28;20036;-49
2022/02/22 00:32:48;;;;;;;22.33;4.68;;;4.60;99.90;;;;;;5104623;28;20036;-54
2022/02/22 00:35:13;;;;;;;20.05;4.90;;;4.60;99.90;;;;;;5096009;28;20483;-54
2022/02/22 00:37:41;;;;;;;16.60;4.18;;;4.60;99.90;;;;;;5107815;28;20034;-55
2022/02/22 00:40:08;;;;;;;19.08;3.65;;;4.60;99.90;;;;;;5109010;28;20023;-53
2022/02/22 00:42:34;;;;;;;16.02;3.50;;;4.50;99.90;;;;;;5083484;28;20028;-51
2022/02/22 00:45:01;;;;;;;14.00;3.45;;;4.50;99.90;;;;;;5089122;28;20114;-55
2022/02/22 00:47:27;;;;;;;23.50;4.30;;;4.50;99.90;;;;;;5094417;28;20111;-55
2022/02/22 00:49:53;;;;;;;22.70;4.88;;;4.50;99.90;;;;;;5108841;28;20643;-54
2022/02/22 00:52:19;;;;;;;21.30;4.25;;;4.40;99.90;;;;;;5107424;28;20457;-50
2022/02/22 00:54:45;;;;;;;18.00;3.88;;;4.40;99.90;;;;;;5104488;28;20024;-52
2022/02/22 00:57:10;;;;;;;13.35;2.97;;;4.30;99.90;;;;;;5083264;28;20027;-55
2022/02/22 00:59:36;;;;;;;17.80;4.10;;;4.30;99.90;;;;;;5108557;28;20423;-57
2022/02/22 01:02:02;;;;;;;25.08;4.75;;;4.30;99.90;;;;;;5108861;28;20399;-55
2022/02/22 01:04:27;;;;;;;17.83;3.95;;;4.30;99.90;;;;;;5107085;28;20027;-58
2022/02/22 01:06:53;;;;;;;25.45;4.72;;;4.20;99.90;;;;;;5105962;28;20016;-54
2022/02/22 01:09:18;;;;;;;13.75;3.55;;;4.20;99.90;;;;;;5088441;28;20399;-56
2022/02/22 01:11:44;;;;;;;16.00;3.38;;;4.20;99.90;;;;;;5085330;28;20407;-58
2022/02/22 01:14:10;;;;;;;15.18;4.72;;;4.20;99.90;;;;;;5088151;28;20027;-56
2022/02/22 01:16:36;;;;;;;17.67;4.20;;;4.20;99.90;;;;;;5088702;28;20034;-52
2022/02/22 01:19:01;;;;;;;19.30;4.90;;;4.20;99.90;;;;;;5088886;28;20032;-53
2022/02/22 01:21:27;;;;;;;15.27;4.50;;;4.10;99.90;;;;;;5088508;28;20078;-51
2022/02/22 01:23:52;;;;;;;16.80;3.90;;;4.10;99.90;;;;;;5091232;28;20488;-54
2022/02/22 01:26:18;;;;;;;24.17;4.45;;;4.10;99.90;;;;;;5092001;28;20020;-52
2022/02/22 01:28:44;;;;;;;13.55;3.78;;;4.10;99.90;;;;;;5091809;28;20111;-56
2022/02/22 01:31:11;;;;;;;18.20;4.55;;;4.10;99.90;;;;;;5092209;28;20032;-55
2022/02/22 01:33:36;;;;;;;15.80;3.75;;;4.20;99.90;;;;;;5092030;28;20085;-52
2022/02/22 01:36:02;;;;;;;16.33;4.22;;;4.30;99.90;;;;;;5092288;28;20024;-52
2022/02/22 01:38:28;;;;;;;16.05;4.63;;;4.20;99.90;;;;;;5091892;28;20119;-51
2022/02/22 01:40:56;;;;;;;18.63;4.20;;;4.20;99.90;;;;;;5092121;28;20099;-55
2022/02/22 01:43:22;;;;;;;19.05;4.45;;;4.20;99.90;;;;;;5091555;28;20043;-53
2022/02/22 01:45:48;;;;;;;19.90;4.55;;;4.20;99.90;;;;;;5091623;28;20039;-56
2022/02/22 01:48:13;;;;;;;11.05;3.35;;;4.30;99.90;;;;;;5091737;28;20024;-53
2022/02/22 01:50:39;;;;;;;19.58;4.63;;;4.30;99.90;;;;;;5091662;28;20043;-55
2022/02/22 01:53:05;;;;;;;19.35;3.65;;;4.30;99.90;;;;;;5091375;28;20092;-53
2022/02/22 01:55:32;;;;;;;18.83;4.57;;;4.30;99.90;;;;;;5091653;28;20035;-52
2022/02/22 01:57:58;;;;;;;19.52;3.67;;;4.30;99.90;;;;;;5089670;28;20043;-53
2022/02/22 02:00:26;;;;;;;17.67;4.43;;;4.30;99.90;;;;;;5081061;28;20028;-54
2022/02/22 02:02:53;;;;;;;21.85;5.20;;;4.30;99.90;;;;;;5070418;28;20433;-55
2022/02/22 02:05:18;;;;;;;21.08;4.22;;;4.30;99.90;;;;;;5090092;28;20475;-51
2022/02/22 02:07:44;;;;;;;18.23;4.25;;;4.30;99.90;;;;;;5095616;28;20031;-55
2022/02/22 02:10:10;;;;;;;19.52;5.20;;;4.30;99.90;;;;;;5116841;22;20055;-49
2022/02/22 02:12:40;;;;;;;23.13;5.50;;;4.30;99.90;;;;;;5088999;28;20553;-52
2022/02/22 02:15:07;;;;;;;22.90;4.47;;;4.30;99.90;;;;;;5056643;28;20032;-51
2022/02/22 02:17:34;;;;;;;21.52;4.70;;;4.40;99.90;;;;;;5088714;28;20862;-52
2022/02/22 02:20:03;;;;;;;24.00;4.97;;;4.40;99.90;;;;;;5071609;28;20123;-52
2022/02/22 02:22:28;;;;;;;18.45;4.28;;;4.40;99.90;;;;;;5090812;28;20031;-49
2022/02/22 02:24:54;;;;;;;19.88;4.43;;;4.40;99.90;;;;;;5072898;28;20016;-50
2022/02/22 02:27:19;;;;;;;21.67;5.03;;;4.40;99.90;;;;;;5092810;28;20020;-51
2022/02/22 02:29:45;;;;;;;19.42;4.65;;;4.40;99.90;;;;;;5111075;28;20486;-54
2022/02/22 02:32:11;;;;;;;25.88;5.13;;;4.40;99.90;;;;;;5108640;28;20604;-50
2022/02/22 02:34:37;;;;;;;19.45;4.85;;;4.30;99.90;;;;;;5110368;28;20030;-50
2022/02/22 02:37:02;;;;;;;19.60;5.20;;;4.30;99.90;;;;;;5110378;28;20039;-50
2022/02/22 02:39:28;;;;;;;25.80;5.22;;;4.20;99.90;;;;;;5111228;28;20088;-51
2022/02/22 02:41:54;;;;;;;20.95;5.75;;;4.10;99.90;;;;;;5101374;28;20444;-51
2022/02/22 02:44:22;;;;;;;21.83;4.55;;;4.00;99.90;;;;;;5096803;28;20077;-53
2022/02/22 02:46:48;;;;;;;28.33;5.05;;;4.00;99.90;;;;;;5090688;28;20028;-51
2022/02/22 02:49:15;;;;;;;21.23;4.72;;;3.90;99.90;;;;;;5090833;28;20444;-53
2022/02/22 02:51:41;;;;;;;21.33;4.72;;;3.90;99.90;;;;;;5090402;28;20042;-48
2022/02/22 02:54:09;;;;;;;25.92;5.88;;;3.80;99.90;;;;;;5091138;28;20039;-51
2022/02/22 02:56:35;;;;;;;21.15;4.68;;;3.80;99.90;;;;;;5106996;28;20039;-51
2022/02/22 02:59:03;;;;;;;29.23;5.70;;;3.80;99.90;;;;;;5107264;28;20038;-50
2022/02/22 03:01:31;;;;;;;29.15;6.32;;;3.80;99.90;;;;;;5090658;28;20028;-50
2022/02/22 03:03:58;;;;;;;23.30;5.25;;;3.80;99.90;;;;;;5095669;28;20039;-50
2022/02/22 03:06:23;;;;;;;19.85;4.07;;;3.80;99.90;;;;;;5098233;28;20034;-50
2022/02/22 03:08:50;;;;;;;16.73;4.13;;;3.80;99.90;;;;;;5080810;28;20114;-50
2022/02/22 03:11:16;;;;;;;20.40;4.20;;;3.80;99.90;;;;;;5090329;28;20043;-52
2022/02/22 03:13:41;;;;;;;20.75;5.32;;;3.90;99.90;;;;;;5098255;28;20081;-54
2022/02/22 03:16:08;;;;;;;16.63;4.97;;;3.80;99.90;;;;;;5110607;28;20039;-53
2022/02/22 03:18:34;;;;;;;21.98;4.35;;;3.80;99.90;;;;;;5110649;28;20042;-53
2022/02/22 03:21:00;;;;;;;26.88;5.03;;;3.80;99.90;;;;;;5107948;28;20035;-51
2022/02/22 03:23:25;;;;;;;18.15;3.92;;;3.80;99.90;;;;;;5090569;28;20074;-53
2022/02/22 03:25:51;;;;;;;16.13;3.83;;;3.80;99.90;;;;;;5091892;28;20031;-51
2022/02/22 03:28:18;;;;;;;23.38;3.95;;;3.80;99.90;;;;;;5107172;28;20027;-51
2022/02/22 03:30:44;;;;;;;13.43;3.42;;;3.90;99.90;;;;;;5110314;28;20059;-51
2022/02/22 03:33:13;;;;;;;20.20;3.53;;;3.80;99.90;;;;;;5109297;28;20057;-51
2022/02/22 03:35:41;;;;;;;21.52;4.50;;;3.80;99.90;;;;;;5102977;28;20127;-53
2022/02/22 03:38:07;;;;;;;22.25;5.32;;;3.80;99.90;;;;;;5090304;28;20537;-51
2022/02/22 03:40:33;;;;;;;20.33;4.15;;;3.90;99.90;;;;;;5090120;28;20026;-50
2022/02/22 03:42:59;;;;;;;20.67;4.35;;;3.80;99.90;;;;;;5089590;28;20058;-52
2022/02/22 03:45:24;;;;;;;15.80;4.15;;;3.80;99.90;;;;;;5090149;28;20032;-51
2022/02/22 03:47:50;;;;;;;19.92;4.28;;;3.90;99.90;;;;;;5089702;28;20066;-50
2022/02/22 03:50:16;;;;;;;19.83;5.40;;;3.90;99.90;;;;;;5101584;28;20034;-49
2022/02/22 03:52:43;;;;;;;21.55;5.25;;;3.90;99.90;;;;;;5093704;28;20085;-50
2022/02/22 03:55:10;;;;;;;25.67;4.80;;;3.90;99.90;;;;;;5089998;28;20039;-51
2022/02/22 03:57:35;;;;;;;20.30;4.93;;;3.90;99.90;;;;;;5089367;28;20035;-49
2022/02/22 04:00:05;;;;;;;18.75;4.47;;;4.00;99.90;;;;;;5090623;28;20032;-50
2022/02/22 04:02:31;;;;;;;26.77;5.78;;;4.00;99.90;;;;;;5072205;28;20025;-51
2022/02/22 04:04:57;;;;;;;26.00;5.65;;;4.10;99.90;;;;;;5091112;28;20038;-51
2022/02/22 04:07:23;;;;;;;19.05;4.32;;;4.00;99.90;;;;;;5089903;28;20468;-51
2022/02/22 04:09:48;;;;;;;20.70;4.97;;;4.00;99.90;;;;;;5102045;28;20042;-52
2022/02/22 04:12:17;;;;;;;25.58;5.65;;;4.00;99.90;;;;;;5089279;28;20523;-51
2022/02/22 04:14:43;;;;;;;17.95;5.03;;;4.00;99.90;;;;;;5089474;28;20032;-50
2022/02/22 04:17:08;;;;;;;26.65;5.90;;;4.00;99.90;;;;;;5091548;28;20036;-51
2022/02/22 04:19:34;;;;;;;18.08;4.28;;;4.00;99.90;;;;;;5091404;28;20111;-52
2022/02/22 04:21:59;;;;;;;21.42;4.50;;;4.00;99.90;;;;;;5107764;28;20021;-49
2022/02/22 04:24:25;;;;;;;22.88;4.05;;;4.00;99.90;;;;;;5109242;28;20032;-52
2022/02/22 04:26:51;;;;;;;12.02;4.30;;;3.90;99.90;;;;;;5089377;28;20031;-50
2022/02/22 04:29:16;;;;;;;31.73;6.43;;;4.00;99.90;;;;;;5092112;28;20061;-51
2022/02/22 04:31:42;;;;;;;23.35;4.05;;;3.90;99.90;;;;;;5090266;28;20024;-53
2022/02/22 04:34:08;;;;;;;20.55;4.43;;;4.00;99.90;;;;;;5088742;28;20028;-50
2022/02/22 04:36:35;;;;;;;24.27;4.35;;;4.00;99.90;;;;;;5088517;28;20056;-52
2022/02/22 04:39:03;;;;;;;20.55;4.18;;;4.00;99.90;;;;;;5088846;28;20035;-51
2022/02/22 04:41:28;;;;;;;19.25;3.13;;;4.00;99.90;;;;;;5089058;28;20484;-49
2022/02/22 04:43:54;;;;;;;4.82;2.35;;;4.00;99.90;;;;;;5101137;28;20173;-51
2022/02/22 04:46:19;;;;;;;12.82;3.40;;;4.00;99.90;;;;;;5096822;28;20414;-52
2022/02/22 04:48:45;;;;;;;8.40;3.03;;;4.00;99.90;;;;;;5090330;28;20084;-53
2022/02/22 04:51:11;;;;;;;16.85;3.10;;;3.90;99.90;;;;;;5089355;28;20113;-51
2022/02/22 04:53:36;;;;;;;9.05;2.15;;;3.90;99.90;;;;;;5099343;28;20555;-50
2022/02/22 04:56:02;;;;;;;11.60;2.45;;;3.80;99.90;;;;;;5110083;28;20070;-51
2022/02/22 04:58:28;;;;;;;10.05;2.40;;;3.80;99.90;;;;;;5104018;28;20039;-50
2022/02/22 05:00:54;;;;;;;7.78;2.58;;;3.80;99.90;;;;;;5109980;28;20110;-52
2022/02/22 05:03:21;;;;;;;9.35;2.60;;;3.70;99.90;;;;;;5111059;28;20388;-52
2022/02/22 05:05:47;;;;;;;9.38;2.90;;;3.70;99.90;;;;;;5095844;28;20072;-51
2022/02/22 05:08:12;;;;;;;9.40;2.58;;;3.70;99.90;;;;;;5111748;28;20490;-50
2022/02/22 05:10:38;;;;;;;14.90;2.92;;;3.70;99.90;;;;;;5112883;28;20028;-51
2022/02/22 05:13:03;;;;;;;14.20;2.63;;;3.70;99.90;;;;;;5102394;28;20093;-50
2022/02/22 05:15:32;;;;;;;17.02;3.85;;;3.70;99.90;;;;;;5110543;28;20089;-50
2022/02/22 05:17:58;;;;;;;12.13;2.78;;;3.70;99.90;;;;;;5112746;28;20498;-53
2022/02/22 05:20:24;;;;;;;10.48;3.17;;;3.70;99.90;;;;;;5112591;28;20030;-55
2022/02/22 05:22:49;;;;;;;15.23;3.50;;;3.70;99.90;;;;;;5112701;28;20102;-52
2022/02/22 05:25:15;;;;;;;8.50;2.85;;;3.70;99.90;;;;;;5113300;28;20024;-51
2022/02/22 05:27:42;;;;;;;10.63;3.15;;;3.60;99.90;;;;;;5102224;28;20065;-51
2022/02/22 05:30:09;;;;;;;15.13;3.15;;;3.50;99.90;;;;;;5098552;28;20185;-54
2022/02/22 05:32:35;;;;;;;13.68;3.53;;;3.50;99.90;;;;;;5092059;28;20488;-53
2022/02/22 05:35:01;;;;;;;14.30;3.85;;;3.40;99.90;;;;;;5092615;28;20039;-53
2022/02/22 05:37:30;;;;;;;19.73;3.42;;;3.40;99.90;;;;;;5092283;28;20040;-52
2022/02/22 05:39:56;;;;;;;19.45;3.60;;;3.30;99.90;;;;;;5092251;28;20024;-51
2022/02/22 05:42:28;;;;;;;17.27;3.47;;;3.30;99.90;;;;;;5091944;28;20670;-51
2022/02/22 05:44:54;;;;;;;14.93;3.35;;;3.30;99.90;;;;;;5086729;28;20472;-53
2022/02/22 05:47:19;;;;;;;17.30;3.22;;;3.30;99.90;;;;;;5091722;28;20085;-52
2022/02/22 05:49:47;;;;;;;14.70;3.08;;;3.20;99.90;;;;;;5092159;28;20032;-49
2022/02/22 05:52:13;;;;;;;24.80;4.70;;;3.30;99.90;;;;;;5091774;28;20535;-53
2022/02/22 05:54:39;;;;;;;15.77;2.90;;;3.30;99.90;;;;;;5110633;28;20119;-53
2022/02/22 05:57:05;;;;;;;16.77;4.63;;;3.20;99.90;;;;;;5088305;28;20050;-51
2022/02/22 05:59:31;;;;;;;22.02;4.07;;;3.30;99.90;;;;;;5092875;28;20420;-49
2022/02/22 06:01:56;;;;;;;13.10;3.63;;;3.30;99.90;;;;;;5091885;28;20109;-51
2022/02/22 06:04:22;;;;;;;16.02;4.32;;;3.30;99.90;;;;;;5092734;28;20047;-51
2022/02/22 06:06:48;;;;;;;18.58;3.70;;;3.30;99.90;;;;;;5074482;28;20024;-51
2022/02/22 06:09:14;;;;;;;16.83;3.25;;;3.30;99.90;;;;;;5091141;28;20373;-51
2022/02/22 06:11:39;;;;;;;19.17;4.00;;;3.40;99.90;;;;;;5091191;28;20039;-51
2022/02/22 06:14:05;;;;;;;20.15;4.03;;;3.40;99.90;;;;;;5091145;28;20069;-51
2022/02/22 06:16:31;;;;;;;19.10;4.22;;;3.40;99.90;;;;;;5091720;28;20038;-51
2022/02/22 06:18:56;;;;;;;12.45;3.67;;;3.40;99.90;;;;;;5091104;28;20024;-52
2022/02/22 06:21:22;;;;;;;24.38;4.10;;;3.40;99.90;;;;;;5091557;28;20402;-51
2022/02/22 06:23:48;;;;;;;23.35;3.97;;;3.50;99.90;;;;;;5090971;28;20074;-52
2022/02/22 06:26:14;;;;;;;21.67;4.20;;;3.50;99.90;;;;;;5091043;28;20028;-51
2022/02/22 06:28:39;;;;;;;13.57;4.07;;;3.60;99.90;;;;;;5090586;28;20029;-51
2022/02/22 06:31:06;;;;;;;14.50;3.85;;;3.60;99.90;;;;;;5090931;28;20032;-50
2022/02/22 06:33:34;;;;;;;19.33;4.60;;;3.60;99.90;;;;;;5090551;28;20024;-53
2022/02/22 06:35:59;;;;;;;17.02;3.15;;;3.60;99.90;;;;;;5090929;28;20096;-51
2022/02/22 06:38:25;;;;;;;18.50;4.07;;;3.60;99.90;;;;;;5091024;28;20475;-51
2022/02/22 06:40:51;;;;;;;14.70;3.83;;;3.60;99.90;;;;;;5090200;28;20035;-53
2022/02/22 06:43:16;;;;;;;16.38;4.43;;;3.70;99.90;;;;;;5090564;28;20047;-51
2022/02/22 06:45:42;;;;;;;18.63;3.95;;;3.60;99.90;;;;;;5090769;28;20043;-52
2022/02/22 06:48:08;;;;;;;23.13;4.68;;;3.70;99.90;;;;;;5090780;28;20031;-51
2022/02/22 06:50:35;;;;;;;14.52;4.07;;;3.70;99.90;;;;;;5090920;28;20030;-51
2022/02/22 06:53:01;;;;;;;32.45;5.65;;;3.70;99.90;;;;;;5089170;28;20016;-51
2022/02/22 06:55:26;;;;;;;24.00;5.03;;;3.70;99.90;;;;;;5090434;28;20128;-52
2022/02/22 06:58:03;;;;;;;24.50;4.43;;;3.70;99.90;;;;;;5090456;28;20028;-51
2022/02/22 07:00:30;;;;;;;26.17;4.60;;;3.70;99.90;;;;;;5090225;28;20062;-53
2022/02/22 07:02:56;;;;;;;25.27;4.63;;;3.70;99.90;;;;;;5089959;28;20022;-51
2022/02/22 07:05:22;;;;;;;20.67;5.13;;;3.80;99.90;;;;;;5089600;28;20020;-52
2022/02/22 07:07:49;;;;;;;19.70;3.78;;;3.70;99.90;;;;;;5090135;28;20032;-52
2022/02/22 07:10:15;;;;;;;28.33;4.28;;;3.80;99.90;;;;;;5092130;28;20016;-52
2022/02/22 07:12:43;;;;;;;19.42;5.35;;;3.80;99.90;;;;;;5110242;28;20040;-54
2022/02/22 07:15:09;;;;;;;18.33;5.00;;;3.80;99.90;;;;;;5110773;28;20024;-51
2022/02/22 07:17:48;;;;;;;15.85;4.45;;;3.90;99.90;;;;;;5092263;28;20032;-54
2022/02/22 07:20:15;;;;;;;20.10;4.38;;;3.90;99.90;;;;;;5090240;28;20024;-52
2022/02/22 07:22:41;;;;;;;21.55;4.20;;;3.90;99.90;;;;;;5097486;28;20023;-53
2022/02/22 07:25:09;;;;;;;24.98;4.22;;;3.90;99.90;;;;;;5107905;28;20704;-51
2022/02/22 07:27:35;;;;;;;17.63;5.15;;;4.00;99.90;;;;;;5109666;28;20028;-55
2022/02/22 07:30:02;;;;;;;26.70;4.25;;;4.00;99.90;;;;;;5108391;28;20032;-52
2022/02/22 07:32:28;;;;;;;21.67;4.72;;;4.00;99.90;;;;;;5097621;28;20554;-53
2022/02/22 07:34:53;;;;;;;21.70;4.65;;;4.00;99.90;;;;;;5083224;28;20123;-51
2022/02/22 07:37:19;;;;;;;20.52;3.80;;;4.10;99.90;;;;;;5079140;28;20039;-53
2022/02/22 07:39:45;;;;;;;20.20;4.22;;;4.10;99.90;;;;;;5091271;28;20039;-51
2022/02/22 07:42:10;;;;;;;15.45;4.60;;;4.10;99.90;;;;;;5096201;28;20487;-52
2022/02/22 07:44:36;;;;;;;12.15;4.10;;;4.10;99.90;;;;;;5089925;28;20035;-53
2022/02/22 07:47:01;;;;;;;21.83;3.67;;;4.10;99.90;;;;;;5089211;28;20024;-51
2022/02/22 07:49:27;;;;;;;20.05;4.78;;;4.20;99.90;;;;;;5089897;28;20034;-52
2022/02/22 07:51:52;;;;;;;19.38;4.22;;;4.20;99.90;;;;;;5089021;28;20509;-51
2022/02/22 07:54:18;;;;;;;18.27;4.13;;;4.30;99.90;;;;;;5089623;28;20107;-51
2022/02/22 07:56:44;;;;;;;13.82;3.17;;;4.30;99.90;;;;;;5089651;28;20039;-53
2022/02/22 07:59:09;;;;;;;16.80;4.45;;;4.40;99.90;;;;;;5089424;28;20031;-50
2022/02/22 08:01:36;;;;;;;17.05;3.70;;;4.40;99.90;;;;;;5088854;28;20172;-51
2022/02/22 08:04:02;;;;;;;17.70;4.28;;;4.40;99.90;;;;;;5089630;28;20024;-51
2022/02/22 08:06:27;;;;;;;16.30;4.70;;;4.40;99.90;;;;;;5088378;28;20103;-51
2022/02/22 08:08:53;;;;;;;25.35;4.38;;;4.50;99.90;;;;;;5089759;28;20036;-50
2022/02/22 08:11:19;;;;;;;10.00;3.72;;;4.50;99.90;;;;;;5111777;22;20613;-56
2022/02/22 08:13:45;;;;;;;21.35;4.07;;;4.50;99.90;;;;;;5108891;28;20534;-55
2022/02/22 08:16:10;;;;;;;23.88;4.43;;;4.50;99.90;;;;;;5109260;28;20103;-54
2022/02/22 08:18:36;;;;;;;18.92;3.33;;;4.60;99.90;;;;;;5090075;28;20032;-53
2022/02/22 08:21:01;;;;;;;20.52;3.70;;;4.60;99.90;;;;;;5094823;28;20056;-57
2022/02/22 08:23:31;;;;;;;13.20;3.08;;;4.60;99.90;;;;;;5088774;28;20360;-56
2022/02/22 08:26:02;;;;;;;18.30;3.20;;;4.60;99.90;;;;;;5087668;28;20070;-53
2022/02/22 08:28:28;;;;;;;19.45;3.92;;;4.60;99.90;;;;;;5089499;28;20494;-54
2022/02/22 08:30:53;;;;;;;20.65;5.18;;;4.70;99.90;;;;;;5085696;28;20024;-57
2022/02/22 08:33:20;;;;;;;11.35;3.40;;;4.70;99.90;;;;;;5090102;28;20028;-53
2022/02/22 08:35:46;;;;;;;12.15;2.97;;;4.70;99.90;;;;;;5086629;28;20513;-55
2022/02/22 08:38:12;;;;;;;15.65;4.03;;;4.80;99.90;;;;;;5093168;28;20023;-52
2022/02/22 08:40:37;;;;;;;17.58;3.53;;;4.80;99.90;;;;;;5092432;28;20503;-55
2022/02/22 08:43:03;;;;;;;16.15;3.67;;;4.90;99.90;;;;;;5093101;28;20032;-55
2022/02/22 08:45:30;;;;;;;17.25;4.72;;;5.00;99.90;;;;;;5092960;28;20027;-52
2022/02/22 08:47:55;;;;;;;21.08;4.07;;;5.00;99.90;;;;;;5092465;28;20069;-55
2022/02/22 08:50:22;;;;;;;22.08;4.47;;;5.00;99.90;;;;;;5092224;28;20032;-51
2022/02/22 08:52:47;;;;;;;17.30;4.65;;;5.10;99.90;;;;;;5092660;28;20024;-56
2022/02/22 08:55:13;;;;;;;14.90;4.13;;;5.20;99.90;;;;;;5092574;28;20046;-57
2022/02/22 08:57:39;;;;;;;16.90;4.13;;;5.30;99.90;;;;;;5090902;28;20025;-55
2022/02/22 09:00:10;;;;;;;14.65;3.95;;;5.30;99.90;;;;;;5091600;28;20020;-55
2022/02/22 09:02:37;;;;;;;23.95;3.65;;;5.40;99.90;;;;;;5092468;28;20028;-55
2022/02/22 09:05:03;;;;;;;13.73;4.00;;;5.40;99.90;;;;;;5092602;28;20020;-57
2022/02/22 09:07:29;;;;;;;21.98;4.28;;;5.50;99.90;;;;;;5080192;28;20082;-55
2022/02/22 09:09:55;;;;;;;16.40;2.95;;;5.50;99.90;;;;;;5072381;28;20033;-56
2022/02/22 09:12:20;;;;;;;12.18;2.75;;;5.60;99.90;;;;;;5082253;28;20067;-59
2022/02/22 09:14:46;;;;;;;20.65;3.22;;;5.80;99.90;;;;;;5092417;28;20036;-50
2022/02/22 09:17:12;;;;;;;20.48;3.90;;;5.90;99.90;;;;;;5092593;28;20028;-52
2022/02/22 09:19:37;;;;;;;17.48;3.97;;;6.00;99.90;;;;;;5092481;28;20074;-57
2022/02/22 09:22:04;;;;;;;13.15;3.05;;;6.10;99.90;;;;;;5091928;28;20429;-56
2022/02/22 09:24:29;;;;;;;19.52;4.10;;;6.10;99.90;;;;;;5092961;28;20082;-55
2022/02/22 09:26:55;;;;;;;9.38;3.47;;;6.20;99.90;;;;;;5072098;28;20438;-57
2022/02/22 09:29:21;;;;;;;11.75;3.17;;;6.10;99.90;;;;;;5087208;28;20044;-50
2022/02/22 09:31:49;;;;;;;20.58;3.15;;;6.10;99.90;;;;;;5092529;28;20028;-53
2022/02/22 09:34:15;;;;;;;11.85;2.70;;;6.10;99.90;;;;;;5075498;28;20032;-55
2022/02/22 09:36:41;;;;;;;16.95;4.30;;;6.10;99.90;;;;;;5073132;28;20459;-54
2022/02/22 09:39:06;;;;;;;20.58;3.47;;;6.10;99.90;;;;;;5084215;28;20059;-55
2022/02/22 09:41:35;;;;;;;12.48;4.15;;;6.30;99.90;;;;;;5092266;28;20085;-57
2022/02/22 09:44:01;;;;;;;17.33;3.78;;;6.30;99.90;;;;;;5090388;28;20020;-58
2022/02/22 09:46:29;;;;;;;11.32;3.95;;;6.30;99.90;;;;;;5091960;28;20047;-52
2022/02/22 09:48:54;;;;;;;22.88;4.15;;;6.30;99.90;;;;;;5091058;28;20055;-51
2022/02/22 09:51:20;;;;;;;17.38;4.45;;;6.30;99.90;;;;;;5092083;28;20471;-55
2022/02/22 09:53:46;;;;;;;12.57;3.35;;;6.40;99.90;;;;;;5090853;28;20055;-53
2022/02/22 09:56:11;;;;;;;20.17;3.30;;;6.40;99.90;;;;;;5091992;28;20055;-53
2022/02/22 09:58:37;;;;;;;18.90;3.28;;;6.50;99.90;;;;;;5091607;28;20031;-52
2022/02/22 10:01:03;;;;;;;13.65;2.63;;;6.60;99.90;;;;;;5090715;28;20055;-55
2022/02/22 10:03:29;;;;;;;18.92;3.85;;;6.60;99.90;;;;;;5073729;28;20039;-56
2022/02/22 10:06:01;;;;;;;16.88;3.85;;;6.60;99.90;;;;;;5085574;28;20020;-54
2022/02/22 10:08:32;;;;;;;15.65;3.53;;;6.70;99.90;;;;;;5071188;28;20112;-55
2022/02/22 10:11:07;;;;;;;14.57;4.00;;;6.70;99.90;;;;;;5071236;28;20021;-54
2022/02/22 10:13:34;;;;;;;11.20;3.53;;;6.70;99.90;;;;;;5070966;28;20063;-53
2022/02/22 10:16:12;;;;;;;13.73;3.10;;;6.60;99.90;;;;;;5072340;28;20064;-54
2022/02/22 10:18:52;;;;;;;19.40;3.88;;;6.60;99.90;;;;;;5069840;28;20036;-53
2022/02/22 10:21:18;;;;;;;13.57;3.58;;;6.60;99.90;;;;;;5086047;28;20032;-55
2022/02/22 10:23:44;;;;;;;17.88;4.22;;;6.60;99.90;;;;;;5080453;28;20059;-53
2022/02/22 10:26:29;;;;;;;17.48;2.55;;;6.70;99.90;;;;;;5071250;28;20037;-56
2022/02/22 10:28:55;;;;;;;15.93;3.97;;;6.70;99.90;;;;;;5071177;28;20428;-53
2022/02/22 10:31:33;;;;;;;14.77;3.05;;;6.80;99.90;;;;;;5074643;28;20028;-54
2022/02/22 10:33:59;;;;;;;16.50;3.38;;;6.90;99.90;;;;;;5070821;28;20699;-53
2022/02/22 10:36:37;;;;;;;12.88;3.05;;;6.90;99.90;;;;;;5069594;28;20040;-56
2022/02/22 10:39:11;;;;;;;13.05;3.40;;;7.00;99.90;;;;;;5071461;28;20056;-52
2022/02/22 10:41:42;;;;;;;14.95;3.42;;;7.00;99.90;;;;;;5071165;28;20082;-55
2022/02/22 10:44:11;;;;;;;27.98;4.50;;;7.00;99.90;;;;;;5070760;28;20024;-55
2022/02/22 10:46:43;;;;;;;14.48;2.55;;;7.00;99.90;;;;;;5068541;28;20338;-56
2022/02/22 10:49:13;;;;;;;16.23;3.47;;;7.00;99.90;;;;;;5070078;28;20547;-57
2022/02/22 10:51:49;;;;;;;13.27;3.13;;;7.00;99.90;;;;;;5071532;28;20037;-55
2022/02/22 10:54:20;;;;;;;18.75;4.07;;;7.10;99.90;;;;;;5070442;28;20031;-56
2022/02/22 10:56:46;;;;;;;6.32;2.95;;;7.10;99.90;;;;;;5086253;28;20028;-57
2022/02/22 10:59:12;;;;;;;17.55;3.13;;;7.10;99.90;;;;;;5090477;28;20024;-55
2022/02/22 11:01:38;;;;;;;15.13;3.70;;;7.10;99.90;;;;;;5088905;28;20031;-58
2022/02/22 11:04:05;;;;;;;16.35;4.55;;;7.10;99.90;;;;;;5090260;28;20024;-53
2022/02/22 11:06:30;;;;;;;17.38;4.40;;;7.10;99.90;;;;;;5075246;28;20033;-55
2022/02/22 11:08:57;;;;;;;15.75;3.28;;;7.00;99.90;;;;;;5070280;28;20461;-55
2022/02/22 11:11:39;;;;;;;20.60;3.25;;;7.00;99.90;;;;;;5078574;28;20384;-56
2022/02/22 11:14:06;;;;;;;12.27;3.47;;;6.90;99.90;;;;;;5071618;28;20029;-56
2022/02/22 11:16:42;;;;;;;20.38;4.10;;;6.90;99.90;;;;;;5070489;28;20032;-53
2022/02/22 11:19:22;;;;;;;19.73;4.60;;;6.80;99.90;;;;;;5070159;28;20044;-53
2022/02/22 11:21:53;;;;;;;14.88;3.72;;;6.80;99.90;;;;;;5082105;28;20063;-54
2022/02/22 11:24:21;;;;;;;15.82;3.50;;;6.80;99.90;;;;;;5073613;28;20024;-53
2022/02/22 11:26:48;;;;;;;16.52;3.13;;;6.80;99.90;;;;;;5069720;28;20021;-56
2022/02/22 11:29:15;;;;;;;17.88;3.50;;;6.80;99.90;;;;;;5069682;28;20399;-51
2022/02/22 11:31:42;;;;;;;17.25;3.80;;;6.80;99.90;;;;;;5069726;28;20025;-56
2022/02/22 11:34:07;;;;;;;18.67;3.65;;;6.80;99.90;;;;;;5069556;28;20029;-53
2022/02/22 11:36:36;;;;;;;16.58;4.10;;;6.90;99.90;;;;;;5069811;28;20021;-57
2022/02/22 11:39:04;;;;;;;13.30;3.95;;;6.90;99.90;;;;;;5069540;28;20577;-52
2022/02/22 11:41:41;;;;;;;18.15;4.53;;;6.90;99.90;;;;;;5069793;28;20025;-57
2022/02/22 11:44:26;;;;;;;20.58;3.70;;;7.00;99.90;;;;;;5069745;28;20052;-55
2022/02/22 11:46:54;;;;;;;15.25;2.97;;;7.00;99.90;;;;;;5069570;28;20463;-56
2022/02/22 11:49:28;;;;;;;11.70;3.40;;;6.90;99.90;;;;;;5068296;28;20028;-58
2022/02/22 11:52:09;;;;;;;14.70;3.13;;;7.00;99.90;;;;;;5069480;28;20365;-55
2022/02/22 11:54:35;;;;;;;16.55;3.75;;;7.00;99.90;;;;;;5069451;28;20024;-57
2022/02/22 11:57:04;;;;;;;20.73;4.75;;;7.00;99.90;;;;;;5069904;28;20553;-52
2022/02/22 11:59:31;;;;;;;16.10;3.15;;;7.10;99.90;;;;;;5069168;28;20027;-55
2022/02/22 12:01:59;;;;;;;10.60;3.03;;;7.20;99.90;;;;;;5069108;28;20495;-56
2022/02/22 12:04:27;;;;;;;10.82;3.00;;;7.20;99.90;;;;;;5069306;28;20024;-56
2022/02/22 12:06:56;;;;;;;13.80;3.60;;;7.30;99.90;;;;;;5079926;28;20651;-55
2022/02/22 12:09:45;;;;;;;13.60;3.22;;;7.20;99.90;;;;;;5079712;28;20020;-52
2022/02/22 12:12:12;;;;;;;20.90;3.58;;;7.20;99.90;;;;;;5072224;28;20510;-57
2022/02/22 12:14:50;;;;;;;14.85;2.95;;;7.20;99.90;;;;;;5068654;28;20039;-52
2022/02/22 12:17:15;;;;;;;16.42;3.13;;;7.20;99.90;;;;;;5065142;28;20024;-51
2022/02/22 12:19:41;;;;;;;17.27;3.35;;;7.10;99.90;;;;;;5068370;28;20032;-53
2022/02/22 12:22:07;;;;;;;17.65;4.20;;;7.10;99.90;;;;;;5068776;28;20020;-55
2022/02/22 12:24:32;;;;;;;18.10;3.92;;;7.20;99.90;;;;;;5079767;28;20032;-55
2022/02/22 12:27:12;;;;;;;12.45;3.38;;;7.20;99.90;;;;;;5086258;28;20020;-57
2022/02/22 12:29:38;;;;;;;12.48;2.40;;;7.20;99.90;;;;;;5086081;28;20493;-53
2022/02/22 12:32:04;;;;;;;20.40;4.63;;;7.20;99.90;;;;;;5088162;28;20058;-55
2022/02/22 12:34:30;;;;;;;15.13;2.95;;;7.30;99.90;;;;;;5087292;28;20523;-52
2022/02/22 12:36:58;;;;;;;12.32;3.33;;;7.30;99.90;;;;;;5088187;28;20021;-54
2022/02/22 12:39:29;;;;;;;14.55;3.22;;;7.30;99.90;;;;;;5087689;28;20088;-54
2022/02/22 12:41:58;;;;;;;21.50;4.82;;;7.30;99.90;;;;;;5086728;28;20020;-55
2022/02/22 12:44:25;;;;;;;12.48;3.90;;;7.20;99.90;;;;;;5068692;28;20520;-56
2022/02/22 12:46:53;;;;;;;13.52;3.45;;;7.20;99.90;;;;;;5068780;28;20024;-52